Aviation Digital Data Service (ADDS)

Output produced by METARs form (0250 UTC 22 April 2019)
found at http://www.aviationweather.gov/metar/data/
 
Forecast for: UUEE (MOSCOW/SHEREMET', RU)
Text: TAF UUEE 220152Z 2203/2303 VRB01MPS CAVOK TX18/2212Z TN03/2203Z
Forecast period: 0300 to 0400 UTC 22 April 2019
Forecast type: FROM: standard forecast or significant change
Winds: variable direction winds at 2 MPH (2 knots; 1.0 m/s)
Visibility: 6 or more miles 10+ km)
Ceiling: unknown
Clouds: missing
Weather: no significant weather forecast for this period
Text: BECMG 2204/2206 32005MPS
Forecast period: 0400 UTC 22 April 2019 to 0300 UTC 23 April 2019
Forecast type: BECOMING: Conditions expected to become as follows by 0600 UTC 22 April 2019
Winds: from the NW (320 degrees) at 12 MPH (10 knots; 5.1 m/s)
Visibility: 6 or more miles 10+ km)
Ceiling: unknown
Clouds: missing
Weather: no significant weather forecast for this period